sensor_id;sensor_type;location;lat;lon;timestamp;P1;durP1;ratioP1;P2;durP2;ratioP2
72603;SDS011;60645;56.968;24.196;2022-11-02T00:01:35;8.07;;;4.55;;
72603;SDS011;60645;56.968;24.196;2022-11-02T00:04:05;7.88;;;4.40;;
72603;SDS011;60645;56.968;24.196;2022-11-02T00:06:32;7.97;;;3.97;;
72603;SDS011;60645;56.968;24.196;2022-11-02T00:08:59;7.45;;;4.15;;
72603;SDS011;60645;56.968;24.196;2022-11-02T00:11:26;7.65;;;4.43;;
72603;SDS011;60645;56.968;24.196;2022-11-02T00:13:53;7.85;;;4.25;;
72603;SDS011;60645;56.968;24.196;2022-11-02T00:16:20;7.50;;;4.13;;
72603;SDS011;60645;56.968;24.196;2022-11-02T00:18:49;7.95;;;4.25;;
72603;SDS011;60645;56.968;24.196;2022-11-02T00:21:18;8.38;;;4.38;;
72603;SDS011;60645;56.968;24.196;2022-11-02T00:23:47;8.85;;;4.07;;
72603;SDS011;60645;56.968;24.196;2022-11-02T00:26:14;7.45;;;4.43;;
72603;SDS011;60645;56.968;24.196;2022-11-02T00:28:42;10.18;;;4.35;;
72603;SDS011;60645;56.968;24.196;2022-11-02T00:31:09;8.02;;;3.85;;
72603;SDS011;60645;56.968;24.196;2022-11-02T00:33:36;10.50;;;4.95;;
72603;SDS011;60645;56.968;24.196;2022-11-02T00:36:03;7.45;;;3.70;;
72603;SDS011;60645;56.968;24.196;2022-11-02T00:38:29;8.73;;;4.07;;
72603;SDS011;60645;56.968;24.196;2022-11-02T00:40:57;8.27;;;4.40;;
72603;SDS011;60645;56.968;24.196;2022-11-02T00:43:24;7.60;;;3.92;;
72603;SDS011;60645;56.968;24.196;2022-11-02T00:45:51;8.15;;;4.45;;
72603;SDS011;60645;56.968;24.196;2022-11-02T00:48:18;9.63;;;4.55;;
72603;SDS011;60645;56.968;24.196;2022-11-02T00:50:45;8.70;;;4.47;;
72603;SDS011;60645;56.968;24.196;2022-11-02T00:53:11;7.10;;;4.22;;
72603;SDS011;60645;56.968;24.196;2022-11-02T00:55:38;7.95;;;4.15;;
72603;SDS011;60645;56.968;24.196;2022-11-02T00:58:05;8.23;;;4.07;;
72603;SDS011;60645;56.968;24.196;2022-11-02T01:00:32;8.98;;;4.65;;
72603;SDS011;60645;56.968;24.196;2022-11-02T01:02:59;7.97;;;4.22;;
72603;SDS011;60645;56.968;24.196;2022-11-02T01:05:27;7.13;;;4.38;;
72603;SDS011;60645;56.968;24.196;2022-11-02T01:07:54;9.48;;;4.28;;
72603;SDS011;60645;56.968;24.196;2022-11-02T01:10:22;8.52;;;4.50;;
72603;SDS011;60645;56.968;24.196;2022-11-02T01:12:51;7.43;;;4.22;;
72603;SDS011;60645;56.968;24.196;2022-11-02T01:15:18;8.60;;;4.03;;
72603;SDS011;60645;56.968;24.196;2022-11-02T01:17:45;7.63;;;3.97;;
72603;SDS011;60645;56.968;24.196;2022-11-02T01:20:12;7.65;;;4.25;;
72603;SDS011;60645;56.968;24.196;2022-11-02T01:22:39;8.02;;;4.38;;
72603;SDS011;60645;56.968;24.196;2022-11-02T01:25:06;8.65;;;5.25;;
72603;SDS011;60645;56.968;24.196;2022-11-02T01:27:33;8.23;;;4.10;;
72603;SDS011;60645;56.968;24.196;2022-11-02T01:30:00;7.13;;;4.57;;
72603;SDS011;60645;56.968;24.196;2022-11-02T01:32:28;7.68;;;4.65;;
72603;SDS011;60645;56.968;24.196;2022-11-02T01:34:56;8.38;;;5.03;;
72603;SDS011;60645;56.968;24.196;2022-11-02T01:37:22;7.38;;;4.32;;
72603;SDS011;60645;56.968;24.196;2022-11-02T01:39:49;6.38;;;3.78;;
72603;SDS011;60645;56.968;24.196;2022-11-02T01:42:17;8.85;;;4.68;;
72603;SDS011;60645;56.968;24.196;2022-11-02T01:44:45;7.82;;;5.05;;
72603;SDS011;60645;56.968;24.196;2022-11-02T01:50:06;7.57;;;4.07;;
72603;SDS011;60645;56.968;24.196;2022-11-02T01:52:40;7.55;;;4.18;;
72603;SDS011;60645;56.968;24.196;2022-11-02T01:58:06;9.80;;;4.10;;
72603;SDS011;60645;56.968;24.196;2022-11-02T02:00:35;8.05;;;4.40;;
72603;SDS011;60645;56.968;24.196;2022-11-02T02:03:13;8.13;;;4.70;;
72603;SDS011;60645;56.968;24.196;2022-11-02T02:05:44;8.07;;;4.20;;
72603;SDS011;60645;56.968;24.196;2022-11-02T02:08:19;8.07;;;4.28;;
72603;SDS011;60645;56.968;24.196;2022-11-02T02:10:49;8.43;;;4.18;;
72603;SDS011;60645;56.968;24.196;2022-11-02T02:13:16;8.90;;;4.75;;
72603;SDS011;60645;56.968;24.196;2022-11-02T02:15:49;6.93;;;3.97;;
72603;SDS011;60645;56.968;24.196;2022-11-02T02:18:25;9.00;;;4.70;;
72603;SDS011;60645;56.968;24.196;2022-11-02T02:31:59;8.98;;;4.65;;
72603;SDS011;60645;56.968;24.196;2022-11-02T02:34:36;8.70;;;4.53;;
72603;SDS011;60645;56.968;24.196;2022-11-02T02:40:05;8.32;;;5.75;;
72603;SDS011;60645;56.968;24.196;2022-11-02T02:42:46;7.00;;;4.30;;
72603;SDS011;60645;56.968;24.196;2022-11-02T02:45:22;9.50;;;5.43;;
72603;SDS011;60645;56.968;24.196;2022-11-02T02:48:09;7.45;;;4.03;;
72603;SDS011;60645;56.968;24.196;2022-11-02T02:50:52;8.02;;;4.25;;
72603;SDS011;60645;56.968;24.196;2022-11-02T02:53:32;7.15;;;4.72;;
72603;SDS011;60645;56.968;24.196;2022-11-02T02:56:07;9.43;;;5.75;;
72603;SDS011;60645;56.968;24.196;2022-11-02T02:58:37;8.35;;;4.78;;
72603;SDS011;60645;56.968;24.196;2022-11-02T03:01:10;9.10;;;4.75;;
72603;SDS011;60645;56.968;24.196;2022-11-02T03:03:40;8.35;;;4.55;;
72603;SDS011;60645;56.968;24.196;2022-11-02T03:08:35;7.88;;;4.60;;
72603;SDS011;60645;56.968;24.196;2022-11-02T03:11:16;7.07;;;4.20;;
72603;SDS011;60645;56.968;24.196;2022-11-02T03:19:23;7.35;;;4.13;;
72603;SDS011;60645;56.968;24.196;2022-11-02T03:22:30;7.78;;;4.30;;
72603;SDS011;60645;56.968;24.196;2022-11-02T03:25:02;6.93;;;4.10;;
72603;SDS011;60645;56.968;24.196;2022-11-02T03:27:40;6.95;;;4.15;;
72603;SDS011;60645;56.968;24.196;2022-11-02T03:30:25;7.45;;;4.40;;
72603;SDS011;60645;56.968;24.196;2022-11-02T03:38:39;8.10;;;4.43;;
72603;SDS011;60645;56.968;24.196;2022-11-02T03:41:09;7.70;;;3.90;;
72603;SDS011;60645;56.968;24.196;2022-11-02T03:43:37;8.48;;;4.85;;
72603;SDS011;60645;56.968;24.196;2022-11-02T03:46:06;7.35;;;4.55;;
72603;SDS011;60645;56.968;24.196;2022-11-02T03:48:45;7.40;;;4.45;;
72603;SDS011;60645;56.968;24.196;2022-11-02T03:51:14;7.80;;;4.28;;
72603;SDS011;60645;56.968;24.196;2022-11-02T03:59:22;7.75;;;4.43;;
72603;SDS011;60645;56.968;24.196;2022-11-02T04:01:49;6.55;;;4.32;;
72603;SDS011;60645;56.968;24.196;2022-11-02T04:04:17;9.65;;;4.28;;
72603;SDS011;60645;56.968;24.196;2022-11-02T04:06:45;7.43;;;4.35;;
72603;SDS011;60645;56.968;24.196;2022-11-02T04:09:14;6.50;;;3.90;;
72603;SDS011;60645;56.968;24.196;2022-11-02T04:11:41;7.72;;;5.00;;
72603;SDS011;60645;56.968;24.196;2022-11-02T04:14:27;8.07;;;4.47;;
72603;SDS011;60645;56.968;24.196;2022-11-02T04:17:06;8.38;;;4.15;;
72603;SDS011;60645;56.968;24.196;2022-11-02T04:19:59;6.80;;;4.07;;
72603;SDS011;60645;56.968;24.196;2022-11-02T04:22:26;7.30;;;4.15;;
72603;SDS011;60645;56.968;24.196;2022-11-02T04:25:13;6.85;;;3.90;;
72603;SDS011;60645;56.968;24.196;2022-11-02T04:27:45;7.50;;;4.18;;
72603;SDS011;60645;56.968;24.196;2022-11-02T04:30:14;7.07;;;4.07;;
72603;SDS011;60645;56.968;24.196;2022-11-02T04:32:44;6.75;;;4.30;;
72603;SDS011;60645;56.968;24.196;2022-11-02T04:35:31;6.82;;;4.32;;
72603;SDS011;60645;56.968;24.196;2022-11-02T04:37:59;6.65;;;4.13;;
72603;SDS011;60645;56.968;24.196;2022-11-02T04:40:59;7.80;;;4.07;;
72603;SDS011;60645;56.968;24.196;2022-11-02T04:43:44;11.50;;;4.65;;
72603;SDS011;60645;56.968;24.196;2022-11-02T04:46:11;10.07;;;4.15;;
72603;SDS011;60645;56.968;24.196;2022-11-02T04:48:37;7.68;;;4.00;;
72603;SDS011;60645;56.968;24.196;2022-11-02T04:51:05;6.63;;;3.72;;
72603;SDS011;60645;56.968;24.196;2022-11-02T04:53:31;8.65;;;4.03;;
72603;SDS011;60645;56.968;24.196;2022-11-02T04:55:58;7.78;;;3.83;;
72603;SDS011;60645;56.968;24.196;2022-11-02T04:58:25;8.38;;;4.25;;
72603;SDS011;60645;56.968;24.196;2022-11-02T05:00:52;7.40;;;4.00;;
72603;SDS011;60645;56.968;24.196;2022-11-02T05:03:19;6.95;;;4.00;;
72603;SDS011;60645;56.968;24.196;2022-11-02T05:05:46;7.22;;;3.88;;
72603;SDS011;60645;56.968;24.196;2022-11-02T05:08:13;6.13;;;4.07;;
72603;SDS011;60645;56.968;24.196;2022-11-02T05:10:39;7.22;;;3.33;;
72603;SDS011;60645;56.968;24.196;2022-11-02T05:13:06;6.63;;;4.32;;
72603;SDS011;60645;56.968;24.196;2022-11-02T05:15:37;6.88;;;3.95;;
72603;SDS011;60645;56.968;24.196;2022-11-02T05:18:04;7.10;;;3.80;;
72603;SDS011;60645;56.968;24.196;2022-11-02T05:20:32;8.30;;;4.00;;
72603;SDS011;60645;56.968;24.196;2022-11-02T05:22:59;7.82;;;4.95;;
72603;SDS011;60645;56.968;24.196;2022-11-02T05:25:26;10.77;;;4.38;;
72603;SDS011;60645;56.968;24.196;2022-11-02T05:27:54;10.82;;;4.10;;
72603;SDS011;60645;56.968;24.196;2022-11-02T05:30:22;6.40;;;3.88;;
72603;SDS011;60645;56.968;24.196;2022-11-02T05:32:49;5.82;;;3.85;;
72603;SDS011;60645;56.968;24.196;2022-11-02T05:35:20;7.18;;;3.92;;
72603;SDS011;60645;56.968;24.196;2022-11-02T05:37:47;7.15;;;3.80;;
72603;SDS011;60645;56.968;24.196;2022-11-02T05:40:14;7.93;;;4.25;;
72603;SDS011;60645;56.968;24.196;2022-11-02T05:42:41;7.82;;;3.92;;
72603;SDS011;60645;56.968;24.196;2022-11-02T05:45:08;7.45;;;4.03;;
72603;SDS011;60645;56.968;24.196;2022-11-02T05:47:35;7.20;;;3.63;;
72603;SDS011;60645;56.968;24.196;2022-11-02T05:50:02;8.95;;;4.53;;
72603;SDS011;60645;56.968;24.196;2022-11-02T05:52:29;8.70;;;4.13;;
72603;SDS011;60645;56.968;24.196;2022-11-02T05:54:56;8.40;;;4.10;;
72603;SDS011;60645;56.968;24.196;2022-11-02T05:57:23;9.90;;;4.05;;
72603;SDS011;60645;56.968;24.196;2022-11-02T05:59:49;8.15;;;4.25;;
72603;SDS011;60645;56.968;24.196;2022-11-02T06:02:16;7.68;;;4.05;;
72603;SDS011;60645;56.968;24.196;2022-11-02T06:04:48;8.40;;;3.95;;
72603;SDS011;60645;56.968;24.196;2022-11-02T06:07:15;6.70;;;3.97;;
72603;SDS011;60645;56.968;24.196;2022-11-02T06:09:42;8.27;;;3.97;;
72603;SDS011;60645;56.968;24.196;2022-11-02T06:12:09;8.43;;;4.45;;
72603;SDS011;60645;56.968;24.196;2022-11-02T06:14:35;8.90;;;4.72;;
72603;SDS011;60645;56.968;24.196;2022-11-02T06:17:02;10.02;;;4.45;;
72603;SDS011;60645;56.968;24.196;2022-11-02T06:19:29;7.22;;;4.32;;
72603;SDS011;60645;56.968;24.196;2022-11-02T06:21:56;7.28;;;4.00;;
72603;SDS011;60645;56.968;24.196;2022-11-02T06:24:23;7.40;;;3.85;;
72603;SDS011;60645;56.968;24.196;2022-11-02T06:26:50;8.90;;;4.50;;
72603;SDS011;60645;56.968;24.196;2022-11-02T06:29:17;7.53;;;4.03;;
72603;SDS011;60645;56.968;24.196;2022-11-02T06:31:44;6.40;;;3.63;;
72603;SDS011;60645;56.968;24.196;2022-11-02T06:34:10;7.40;;;4.30;;
72603;SDS011;60645;56.968;24.196;2022-11-02T06:36:37;9.00;;;5.10;;
72603;SDS011;60645;56.968;24.196;2022-11-02T06:39:05;8.00;;;4.60;;
72603;SDS011;60645;56.968;24.196;2022-11-02T06:41:32;9.88;;;4.32;;
72603;SDS011;60645;56.968;24.196;2022-11-02T06:43:58;9.10;;;4.55;;
72603;SDS011;60645;56.968;24.196;2022-11-02T06:46:25;8.40;;;5.03;;
72603;SDS011;60645;56.968;24.196;2022-11-02T06:48:52;8.75;;;4.55;;
72603;SDS011;60645;56.968;24.196;2022-11-02T06:51:19;7.78;;;4.30;;
72603;SDS011;60645;56.968;24.196;2022-11-02T06:53:46;8.00;;;3.67;;
72603;SDS011;60645;56.968;24.196;2022-11-02T06:56:13;9.23;;;4.57;;
72603;SDS011;60645;56.968;24.196;2022-11-02T06:58:40;8.00;;;4.43;;
72603;SDS011;60645;56.968;24.196;2022-11-02T07:01:07;8.35;;;4.38;;
72603;SDS011;60645;56.968;24.196;2022-11-02T07:03:34;8.85;;;4.63;;
72603;SDS011;60645;56.968;24.196;2022-11-02T07:06:02;10.18;;;5.05;;
72603;SDS011;60645;56.968;24.196;2022-11-02T07:08:29;8.43;;;4.30;;
72603;SDS011;60645;56.968;24.196;2022-11-02T07:10:56;7.82;;;4.38;;
72603;SDS011;60645;56.968;24.196;2022-11-02T07:13:23;8.05;;;4.28;;
72603;SDS011;60645;56.968;24.196;2022-11-02T07:15:50;8.35;;;4.18;;
72603;SDS011;60645;56.968;24.196;2022-11-02T07:18:18;9.50;;;4.72;;
72603;SDS011;60645;56.968;24.196;2022-11-02T07:20:45;7.93;;;4.53;;
72603;SDS011;60645;56.968;24.196;2022-11-02T07:23:12;9.82;;;4.70;;
72603;SDS011;60645;56.968;24.196;2022-11-02T07:25:39;8.52;;;4.38;;
72603;SDS011;60645;56.968;24.196;2022-11-02T07:28:06;8.52;;;4.45;;
72603;SDS011;60645;56.968;24.196;2022-11-02T07:30:33;9.13;;;5.13;;
72603;SDS011;60645;56.968;24.196;2022-11-02T07:33:00;8.68;;;4.45;;
72603;SDS011;60645;56.968;24.196;2022-11-02T07:35:28;9.13;;;4.15;;
72603;SDS011;60645;56.968;24.196;2022-11-02T07:37:59;7.88;;;4.15;;
72603;SDS011;60645;56.968;24.196;2022-11-02T07:40:28;7.55;;;4.20;;
72603;SDS011;60645;56.968;24.196;2022-11-02T07:42:56;8.18;;;4.43;;
72603;SDS011;60645;56.968;24.196;2022-11-02T07:45:23;9.45;;;4.40;;
72603;SDS011;60645;56.968;24.196;2022-11-02T07:47:50;9.38;;;3.83;;
72603;SDS011;60645;56.968;24.196;2022-11-02T07:50:18;9.25;;;4.70;;
72603;SDS011;60645;56.968;24.196;2022-11-02T07:52:48;9.68;;;4.13;;
72603;SDS011;60645;56.968;24.196;2022-11-02T07:55:17;17.38;;;5.35;;
72603;SDS011;60645;56.968;24.196;2022-11-02T07:57:55;9.27;;;4.03;;
72603;SDS011;60645;56.968;24.196;2022-11-02T08:00:33;11.48;;;5.22;;
72603;SDS011;60645;56.968;24.196;2022-11-02T08:03:03;11.45;;;5.13;;
72603;SDS011;60645;56.968;24.196;2022-11-02T08:05:36;11.25;;;4.50;;
72603;SDS011;60645;56.968;24.196;2022-11-02T08:08:05;8.95;;;4.32;;
72603;SDS011;60645;56.968;24.196;2022-11-02T08:10:35;10.20;;;4.68;;
72603;SDS011;60645;56.968;24.196;2022-11-02T08:13:09;12.10;;;5.38;;
72603;SDS011;60645;56.968;24.196;2022-11-02T08:15:38;9.38;;;4.40;;
72603;SDS011;60645;56.968;24.196;2022-11-02T08:18:06;12.38;;;4.50;;
72603;SDS011;60645;56.968;24.196;2022-11-02T08:20:44;10.45;;;4.35;;
72603;SDS011;60645;56.968;24.196;2022-11-02T08:23:11;9.35;;;4.65;;
72603;SDS011;60645;56.968;24.196;2022-11-02T08:25:42;9.85;;;5.03;;
72603;SDS011;60645;56.968;24.196;2022-11-02T08:28:13;11.23;;;4.65;;
72603;SDS011;60645;56.968;24.196;2022-11-02T08:30:42;11.35;;;4.78;;
72603;SDS011;60645;56.968;24.196;2022-11-02T08:33:10;10.30;;;4.70;;
72603;SDS011;60645;56.968;24.196;2022-11-02T08:35:38;12.32;;;4.68;;
72603;SDS011;60645;56.968;24.196;2022-11-02T08:38:07;8.07;;;4.45;;
72603;SDS011;60645;56.968;24.196;2022-11-02T08:40:34;9.75;;;4.93;;
72603;SDS011;60645;56.968;24.196;2022-11-02T08:43:06;10.20;;;4.35;;
72603;SDS011;60645;56.968;24.196;2022-11-02T08:45:37;10.00;;;4.65;;
72603;SDS011;60645;56.968;24.196;2022-11-02T08:48:26;8.07;;;3.95;;
72603;SDS011;60645;56.968;24.196;2022-11-02T08:50:53;12.95;;;4.70;;
72603;SDS011;60645;56.968;24.196;2022-11-02T08:53:21;8.25;;;4.03;;
72603;SDS011;60645;56.968;24.196;2022-11-02T08:55:48;9.45;;;4.75;;
72603;SDS011;60645;56.968;24.196;2022-11-02T08:58:15;8.63;;;4.32;;
72603;SDS011;60645;56.968;24.196;2022-11-02T09:00:43;10.75;;;4.47;;
72603;SDS011;60645;56.968;24.196;2022-11-02T09:03:11;9.65;;;5.15;;
72603;SDS011;60645;56.968;24.196;2022-11-02T09:05:43;8.27;;;4.40;;
72603;SDS011;60645;56.968;24.196;2022-11-02T09:08:12;9.38;;;4.40;;
72603;SDS011;60645;56.968;24.196;2022-11-02T09:10:42;8.10;;;4.78;;
72603;SDS011;60645;56.968;24.196;2022-11-02T09:13:12;7.43;;;4.13;;
72603;SDS011;60645;56.968;24.196;2022-11-02T09:15:40;6.88;;;4.15;;
72603;SDS011;60645;56.968;24.196;2022-11-02T09:18:07;6.95;;;4.43;;
72603;SDS011;60645;56.968;24.196;2022-11-02T09:20:35;8.32;;;5.30;;
72603;SDS011;60645;56.968;24.196;2022-11-02T09:23:02;7.07;;;4.30;;
72603;SDS011;60645;56.968;24.196;2022-11-02T09:25:29;7.22;;;4.35;;
72603;SDS011;60645;56.968;24.196;2022-11-02T09:27:56;8.23;;;4.35;;
72603;SDS011;60645;56.968;24.196;2022-11-02T09:30:23;9.23;;;4.82;;
72603;SDS011;60645;56.968;24.196;2022-11-02T09:32:52;7.00;;;3.90;;
72603;SDS011;60645;56.968;24.196;2022-11-02T09:35:31;7.22;;;4.32;;
72603;SDS011;60645;56.968;24.196;2022-11-02T09:38:03;8.50;;;4.10;;
72603;SDS011;60645;56.968;24.196;2022-11-02T09:40:42;6.30;;;3.83;;
72603;SDS011;60645;56.968;24.196;2022-11-02T09:43:32;6.75;;;4.07;;
72603;SDS011;60645;56.968;24.196;2022-11-02T09:48:57;8.10;;;4.07;;
72603;SDS011;60645;56.968;24.196;2022-11-02T09:51:31;5.72;;;3.53;;
72603;SDS011;60645;56.968;24.196;2022-11-02T09:56:42;7.65;;;3.88;;
72603;SDS011;60645;56.968;24.196;2022-11-02T10:04:42;6.88;;;3.88;;
72603;SDS011;60645;56.968;24.196;2022-11-02T10:13:02;7.97;;;4.25;;
72603;SDS011;60645;56.968;24.196;2022-11-02T10:15:40;6.43;;;3.88;;
72603;SDS011;60645;56.968;24.196;2022-11-02T10:18:23;8.45;;;5.00;;
72603;SDS011;60645;56.968;24.196;2022-11-02T10:20:53;7.32;;;4.63;;
72603;SDS011;60645;56.968;24.196;2022-11-02T10:23:33;6.57;;;3.88;;
72603;SDS011;60645;56.968;24.196;2022-11-02T10:26:05;7.03;;;4.43;;
72603;SDS011;60645;56.968;24.196;2022-11-02T10:28:38;8.15;;;4.57;;
72603;SDS011;60645;56.968;24.196;2022-11-02T10:31:16;6.93;;;4.15;;
72603;SDS011;60645;56.968;24.196;2022-11-02T10:33:51;7.45;;;4.32;;
72603;SDS011;60645;56.968;24.196;2022-11-02T10:36:37;7.15;;;4.25;;
72603;SDS011;60645;56.968;24.196;2022-11-02T10:39:19;7.28;;;4.90;;
72603;SDS011;60645;56.968;24.196;2022-11-02T10:53:10;7.15;;;4.45;;
72603;SDS011;60645;56.968;24.196;2022-11-02T10:58:31;7.18;;;4.07;;
72603;SDS011;60645;56.968;24.196;2022-11-02T11:01:06;7.30;;;4.43;;
72603;SDS011;60645;56.968;24.196;2022-11-02T11:06:28;7.20;;;4.85;;
72603;SDS011;60645;56.968;24.196;2022-11-02T11:09:14;6.75;;;4.03;;
72603;SDS011;60645;56.968;24.196;2022-11-02T11:12:03;7.20;;;4.25;;
72603;SDS011;60645;56.968;24.196;2022-11-02T11:14:36;6.18;;;3.95;;
72603;SDS011;60645;56.968;24.196;2022-11-02T11:17:36;6.50;;;4.38;;
72603;SDS011;60645;56.968;24.196;2022-11-02T11:20:35;7.03;;;3.65;;
72603;SDS011;60645;56.968;24.196;2022-11-02T11:26:03;7.32;;;4.75;;
72603;SDS011;60645;56.968;24.196;2022-11-02T11:28:52;6.47;;;3.63;;
72603;SDS011;60645;56.968;24.196;2022-11-02T11:31:21;7.38;;;3.38;;
72603;SDS011;60645;56.968;24.196;2022-11-02T11:36:21;5.82;;;4.00;;
72603;SDS011;60645;56.968;24.196;2022-11-02T11:38:59;6.72;;;3.90;;
72603;SDS011;60645;56.968;24.196;2022-11-02T11:41:42;5.75;;;3.95;;
72603;SDS011;60645;56.968;24.196;2022-11-02T11:44:09;6.10;;;4.18;;
72603;SDS011;60645;56.968;24.196;2022-11-02T11:46:40;6.82;;;3.75;;
72603;SDS011;60645;56.968;24.196;2022-11-02T11:49:45;7.07;;;4.25;;
72603;SDS011;60645;56.968;24.196;2022-11-02T11:52:30;8.07;;;4.43;;
72603;SDS011;60645;56.968;24.196;2022-11-02T11:54:59;5.75;;;3.33;;
72603;SDS011;60645;56.968;24.196;2022-11-02T11:57:31;5.43;;;3.58;;
72603;SDS011;60645;56.968;24.196;2022-11-02T12:00:00;6.43;;;3.40;;
72603;SDS011;60645;56.968;24.196;2022-11-02T12:10:39;6.18;;;3.67;;
72603;SDS011;60645;56.968;24.196;2022-11-02T12:13:14;5.70;;;3.60;;
72603;SDS011;60645;56.968;24.196;2022-11-02T12:21:13;7.28;;;3.80;;
72603;SDS011;60645;56.968;24.196;2022-11-02T12:26:53;5.95;;;4.20;;
72603;SDS011;60645;56.968;24.196;2022-11-02T12:37:59;5.38;;;3.42;;
72603;SDS011;60645;56.968;24.196;2022-11-02T12:54:58;4.65;;;2.85;;
72603;SDS011;60645;56.968;24.196;2022-11-02T12:59:59;4.95;;;3.40;;
72603;SDS011;60645;56.968;24.196;2022-11-02T13:05:13;5.13;;;3.25;;
72603;SDS011;60645;56.968;24.196;2022-11-02T13:07:45;4.97;;;3.05;;
72603;SDS011;60645;56.968;24.196;2022-11-02T13:10:38;5.30;;;2.97;;
72603;SDS011;60645;56.968;24.196;2022-11-02T13:13:16;4.57;;;2.80;;
72603;SDS011;60645;56.968;24.196;2022-11-02T13:15:57;5.35;;;3.20;;
72603;SDS011;60645;56.968;24.196;2022-11-02T13:18:28;4.78;;;3.17;;
72603;SDS011;60645;56.968;24.196;2022-11-02T13:20:59;5.10;;;3.40;;
72603;SDS011;60645;56.968;24.196;2022-11-02T13:26:23;5.13;;;3.28;;
72603;SDS011;60645;56.968;24.196;2022-11-02T13:31:46;5.18;;;2.67;;
72603;SDS011;60645;56.968;24.196;2022-11-02T13:34:44;5.00;;;3.03;;
72603;SDS011;60645;56.968;24.196;2022-11-02T13:37:18;4.60;;;2.90;;
72603;SDS011;60645;56.968;24.196;2022-11-02T13:39:56;4.63;;;2.83;;
72603;SDS011;60645;56.968;24.196;2022-11-02T13:50:49;5.57;;;3.00;;
72603;SDS011;60645;56.968;24.196;2022-11-02T13:53:26;3.78;;;2.22;;
72603;SDS011;60645;56.968;24.196;2022-11-02T13:56:07;6.40;;;3.47;;
72603;SDS011;60645;56.968;24.196;2022-11-02T13:58:41;6.32;;;3.35;;
72603;SDS011;60645;56.968;24.196;2022-11-02T14:01:16;4.95;;;3.25;;
72603;SDS011;60645;56.968;24.196;2022-11-02T14:03:50;4.95;;;2.45;;
72603;SDS011;60645;56.968;24.196;2022-11-02T14:06:27;4.10;;;2.47;;
72603;SDS011;60645;56.968;24.196;2022-11-02T14:09:02;5.82;;;2.97;;
72603;SDS011;60645;56.968;24.196;2022-11-02T14:14:13;4.40;;;2.42;;
72603;SDS011;60645;56.968;24.196;2022-11-02T14:16:41;4.70;;;3.00;;
72603;SDS011;60645;56.968;24.196;2022-11-02T14:19:12;4.25;;;2.95;;
72603;SDS011;60645;56.968;24.196;2022-11-02T14:25:16;3.97;;;2.67;;
72603;SDS011;60645;56.968;24.196;2022-11-02T14:43:00;6.85;;;3.08;;
72603;SDS011;60645;56.968;24.196;2022-11-02T14:45:34;4.95;;;2.85;;
72603;SDS011;60645;56.968;24.196;2022-11-02T14:48:41;7.13;;;3.05;;
72603;SDS011;60645;56.968;24.196;2022-11-02T14:51:15;4.82;;;2.97;;
72603;SDS011;60645;56.968;24.196;2022-11-02T14:53:48;5.03;;;2.72;;
72603;SDS011;60645;56.968;24.196;2022-11-02T14:56:20;6.05;;;2.58;;
72603;SDS011;60645;56.968;24.196;2022-11-02T14:58:48;5.35;;;3.28;;
72603;SDS011;60645;56.968;24.196;2022-11-02T15:01:22;3.50;;;2.70;;
72603;SDS011;60645;56.968;24.196;2022-11-02T15:03:49;5.78;;;2.63;;
72603;SDS011;60645;56.968;24.196;2022-11-02T15:06:20;5.68;;;2.88;;
72603;SDS011;60645;56.968;24.196;2022-11-02T15:08:54;5.00;;;3.40;;
72603;SDS011;60645;56.968;24.196;2022-11-02T15:19:43;5.20;;;2.90;;
72603;SDS011;60645;56.968;24.196;2022-11-02T15:24:54;4.82;;;2.67;;
72603;SDS011;60645;56.968;24.196;2022-11-02T15:27:38;4.47;;;3.00;;
72603;SDS011;60645;56.968;24.196;2022-11-02T15:30:17;5.63;;;2.63;;
72603;SDS011;60645;56.968;24.196;2022-11-02T15:32:57;5.13;;;3.13;;
72603;SDS011;60645;56.968;24.196;2022-11-02T15:35:29;4.35;;;3.00;;
72603;SDS011;60645;56.968;24.196;2022-11-02T15:38:02;5.13;;;3.08;;
72603;SDS011;60645;56.968;24.196;2022-11-02T15:40:52;5.72;;;2.97;;
72603;SDS011;60645;56.968;24.196;2022-11-02T15:43:44;5.43;;;2.85;;
72603;SDS011;60645;56.968;24.196;2022-11-02T15:52:14;4.30;;;2.72;;
72603;SDS011;60645;56.968;24.196;2022-11-02T15:55:30;5.07;;;2.97;;
72603;SDS011;60645;56.968;24.196;2022-11-02T16:03:34;3.90;;;2.70;;
72603;SDS011;60645;56.968;24.196;2022-11-02T16:06:01;4.88;;;2.78;;
72603;SDS011;60645;56.968;24.196;2022-11-02T16:08:32;6.15;;;3.40;;
72603;SDS011;60645;56.968;24.196;2022-11-02T16:11:11;4.40;;;3.28;;
72603;SDS011;60645;56.968;24.196;2022-11-02T16:13:43;3.70;;;2.47;;
72603;SDS011;60645;56.968;24.196;2022-11-02T16:16:31;5.00;;;2.88;;
72603;SDS011;60645;56.968;24.196;2022-11-02T16:19:01;4.15;;;2.70;;
72603;SDS011;60645;56.968;24.196;2022-11-02T16:21:28;5.28;;;3.05;;
72603;SDS011;60645;56.968;24.196;2022-11-02T16:23:55;5.47;;;3.45;;
72603;SDS011;60645;56.968;24.196;2022-11-02T16:26:25;4.85;;;2.67;;
72603;SDS011;60645;56.968;24.196;2022-11-02T16:28:55;4.43;;;2.97;;
72603;SDS011;60645;56.968;24.196;2022-11-02T16:33:57;3.60;;;2.65;;
72603;SDS011;60645;56.968;24.196;2022-11-02T16:36:29;3.70;;;2.42;;
72603;SDS011;60645;56.968;24.196;2022-11-02T16:39:05;4.10;;;2.33;;
72603;SDS011;60645;56.968;24.196;2022-11-02T16:41:54;4.53;;;3.60;;
72603;SDS011;60645;56.968;24.196;2022-11-02T16:44:27;4.78;;;3.15;;
72603;SDS011;60645;56.968;24.196;2022-11-02T16:49:32;5.07;;;2.83;;
72603;SDS011;60645;56.968;24.196;2022-11-02T16:54:44;3.75;;;2.83;;
72603;SDS011;60645;56.968;24.196;2022-11-02T16:57:15;4.28;;;3.13;;
72603;SDS011;60645;56.968;24.196;2022-11-02T16:59:48;5.35;;;3.10;;
72603;SDS011;60645;56.968;24.196;2022-11-02T17:02:17;4.65;;;3.05;;
72603;SDS011;60645;56.968;24.196;2022-11-02T17:04:48;5.32;;;3.08;;
72603;SDS011;60645;56.968;24.196;2022-11-02T17:07:26;4.20;;;2.83;;
72603;SDS011;60645;56.968;24.196;2022-11-02T17:10:02;4.68;;;3.22;;
72603;SDS011;60645;56.968;24.196;2022-11-02T17:12:35;4.97;;;3.58;;
72603;SDS011;60645;56.968;24.196;2022-11-02T17:15:13;4.13;;;2.72;;
72603;SDS011;60645;56.968;24.196;2022-11-02T17:17:46;4.72;;;2.90;;
72603;SDS011;60645;56.968;24.196;2022-11-02T17:20:20;4.75;;;2.85;;
72603;SDS011;60645;56.968;24.196;2022-11-02T17:23:02;4.95;;;3.22;;
72603;SDS011;60645;56.968;24.196;2022-11-02T17:25:35;4.07;;;2.92;;
72603;SDS011;60645;56.968;24.196;2022-11-02T17:31:28;5.15;;;3.85;;
72603;SDS011;60645;56.968;24.196;2022-11-02T17:34:07;4.65;;;2.95;;
72603;SDS011;60645;56.968;24.196;2022-11-02T17:36:40;4.50;;;3.13;;
72603;SDS011;60645;56.968;24.196;2022-11-02T17:39:09;5.43;;;2.95;;
72603;SDS011;60645;56.968;24.196;2022-11-02T17:41:38;5.35;;;3.38;;
72603;SDS011;60645;56.968;24.196;2022-11-02T17:44:24;5.78;;;3.17;;
72603;SDS011;60645;56.968;24.196;2022-11-02T17:46:51;4.97;;;3.20;;
72603;SDS011;60645;56.968;24.196;2022-11-02T17:49:19;4.57;;;3.05;;
72603;SDS011;60645;56.968;24.196;2022-11-02T17:51:46;4.63;;;2.97;;
72603;SDS011;60645;56.968;24.196;2022-11-02T17:54:13;4.32;;;2.80;;
72603;SDS011;60645;56.968;24.196;2022-11-02T17:56:40;6.20;;;3.38;;
72603;SDS011;60645;56.968;24.196;2022-11-02T17:59:07;4.18;;;2.72;;
72603;SDS011;60645;56.968;24.196;2022-11-02T18:01:33;4.45;;;3.22;;
72603;SDS011;60645;56.968;24.196;2022-11-02T18:04:01;4.82;;;2.92;;
72603;SDS011;60645;56.968;24.196;2022-11-02T18:06:27;4.38;;;2.80;;
72603;SDS011;60645;56.968;24.196;2022-11-02T18:08:55;4.97;;;3.20;;
72603;SDS011;60645;56.968;24.196;2022-11-02T18:11:37;4.60;;;3.35;;
72603;SDS011;60645;56.968;24.196;2022-11-02T18:14:03;4.07;;;2.83;;